Time;durP1;ratioP1;P1;durP2;ratioP2;P2;SDS_P1;SDS_P2;PMS_P1;PMS_P2;Temp;Humidity;BMP_temperature;BMP_pressure;BME280_temperature;BME280_humidity;BME280_pressure;Samples;Min_cycle;Max_cycle;Signal;HPM_P1;HPM_P2
2022/01/11 00:12:38;;;;;;;39.90;22.85;;;0.80;99.90;;;;;;6125843;23;20348;-89
2022/01/11 00:15:04;;;;;;;48.25;23.65;;;0.80;99.90;;;;;;6127031;23;20026;-89
2022/01/11 00:17:29;;;;;;;54.37;23.73;;;0.80;99.90;;;;;;6128747;23;20462;-89
2022/01/11 00:19:55;;;;;;;82.97;24.25;;;0.80;99.90;;;;;;6128643;23;20348;-89
2022/01/11 00:22:27;;;;;;;45.27;23.70;;;0.70;99.90;;;;;;6128413;23;20014;-88
2022/01/11 00:24:53;;;;;;;42.50;23.25;;;0.80;99.90;;;;;;6129164;23;20025;-87
2022/01/11 00:27:19;;;;;;;71.53;25.67;;;0.70;99.90;;;;;;6128399;23;20009;-88
2022/01/11 00:29:49;;;;;;;42.57;22.30;;;0.70;99.90;;;;;;6128353;23;20025;-87
2022/01/11 00:32:17;;;;;;;43.85;24.08;;;0.70;99.90;;;;;;6128380;23;20014;-87
2022/01/11 00:34:51;;;;;;;49.10;23.45;;;0.70;99.90;;;;;;6128263;23;20101;-88
2022/01/11 00:37:18;;;;;;;45.70;23.55;;;0.70;99.90;;;;;;6128438;23;20017;-89
2022/01/11 00:39:45;;;;;;;70.93;24.30;;;0.70;99.90;;;;;;6128583;23;20022;-90
2022/01/11 00:42:16;;;;;;;41.88;23.67;;;0.70;99.90;;;;;;6128493;23;20153;-88
2022/01/11 00:44:43;;;;;;;47.72;23.90;;;0.70;99.90;;;;;;6128384;23;20014;-90
2022/01/11 00:47:09;;;;;;;43.53;24.80;;;0.70;99.90;;;;;;6128481;23;20022;-88
2022/01/11 00:49:38;;;;;;;42.83;23.95;;;0.70;99.90;;;;;;6128213;23;20068;-88
2022/01/11 00:52:04;;;;;;;45.15;24.05;;;0.70;99.90;;;;;;6128506;23;20010;-88
2022/01/11 00:54:29;;;;;;;37.38;23.08;;;0.70;99.90;;;;;;6128657;23;20014;-89
2022/01/11 00:56:55;;;;;;;42.40;23.08;;;0.70;99.90;;;;;;6128524;23;20061;-90
2022/01/11 00:59:21;;;;;;;37.55;21.98;;;0.70;99.90;;;;;;6128399;23;20104;-88
2022/01/11 01:01:47;;;;;;;38.30;22.30;;;0.70;99.90;;;;;;6128345;23;20097;-89
2022/01/11 01:04:12;;;;;;;38.50;22.88;;;0.60;99.90;;;;;;6128338;23;20021;-88
2022/01/11 01:06:39;;;;;;;38.25;22.60;;;0.70;99.90;;;;;;6128266;23;20066;-88
2022/01/11 01:09:06;;;;;;;39.92;22.38;;;0.60;99.90;;;;;;6128630;23;20112;-88
2022/01/11 01:11:32;;;;;;;36.65;21.33;;;0.60;99.90;;;;;;6128485;23;20022;-90
2022/01/11 01:13:58;;;;;;;45.47;23.15;;;0.60;99.90;;;;;;6128114;23;20053;-89
2022/01/11 01:16:24;;;;;;;35.27;23.03;;;0.60;99.90;;;;;;6128215;23;20022;-89
2022/01/11 01:18:50;;;;;;;38.13;22.40;;;0.60;99.90;;;;;;6128225;23;20025;-88
2022/01/11 01:21:17;;;;;;;35.90;22.95;;;0.60;99.90;;;;;;6128272;23;20072;-89
2022/01/11 01:23:42;;;;;;;31.50;22.23;;;0.60;99.90;;;;;;6128331;23;20022;-89
2022/01/11 01:26:09;;;;;;;32.10;22.35;;;0.50;99.90;;;;;;6127254;23;20028;-88
2022/01/11 01:28:35;;;;;;;36.33;21.77;;;0.50;99.90;;;;;;6126945;23;20022;-90
2022/01/11 01:31:01;;;;;;;38.25;22.65;;;0.50;99.90;;;;;;6126771;23;20050;-89
2022/01/11 01:33:32;;;;;;;35.05;22.83;;;0.50;99.90;;;;;;6126745;23;20014;-89
2022/01/11 01:36:02;;;;;;;36.20;22.20;;;0.60;99.90;;;;;;6126751;23;20470;-89
2022/01/11 01:38:30;;;;;;;33.10;21.67;;;0.50;99.90;;;;;;6126894;23;20049;-90
2022/01/11 01:41:02;;;;;;;33.63;22.23;;;0.50;99.90;;;;;;6126781;23;20028;-89
2022/01/11 01:43:29;;;;;;;40.75;22.10;;;0.50;99.90;;;;;;6126805;23;20092;-88
2022/01/11 01:45:58;;;;;;;32.30;21.73;;;0.50;99.90;;;;;;6126954;23;20045;-89
2022/01/11 01:48:24;;;;;;;39.10;23.10;;;0.50;99.90;;;;;;6126502;23;20448;-87
2022/01/11 01:50:51;;;;;;;36.47;22.42;;;0.50;99.90;;;;;;6126371;23;20157;-88
2022/01/11 01:53:17;;;;;;;35.20;22.38;;;0.50;99.90;;;;;;6126635;23;20025;-88
2022/01/11 01:55:45;;;;;;;32.10;22.98;;;0.40;99.90;;;;;;6126439;23;20535;-87
2022/01/11 01:58:11;;;;;;;45.28;22.90;;;0.40;99.90;;;;;;6126255;23;20022;-87
2022/01/11 02:05:48;;;;;;;42.17;23.88;;;0.40;99.90;;;;;;6127090;23;20026;-89
2022/01/11 02:08:14;;;;;;;38.85;23.60;;;0.40;99.90;;;;;;6101284;23;20024;-88
2022/01/11 02:10:39;;;;;;;40.33;23.50;;;0.40;99.90;;;;;;6125760;23;20025;-89
2022/01/11 02:13:08;;;;;;;;;;;0.40;99.90;;;;;;6126186;23;20321;-88
2022/01/11 02:15:34;;;;;;;35.75;23.13;;;0.40;99.90;;;;;;6125766;23;19917;-91
2022/01/11 02:18:21;;;;;;;38.10;23.60;;;0.40;99.90;;;;;;6126263;23;20399;-88
2022/01/11 02:20:50;;;;;;;41.33;25.15;;;0.50;99.90;;;;;;6101316;23;20093;-87
2022/01/11 02:23:17;;;;;;;42.80;23.30;;;0.50;99.90;;;;;;6125587;23;20536;-87
2022/01/11 02:25:43;;;;;;;38.22;23.50;;;0.40;99.90;;;;;;6125378;23;20092;-90
2022/01/11 02:28:13;;;;;;;52.33;23.70;;;0.40;99.90;;;;;;6125511;23;20022;-88
2022/01/11 02:30:39;;;;;;;43.42;22.65;;;0.50;99.90;;;;;;6125178;23;20021;-87
2022/01/11 02:33:10;;;;;;;50.92;23.38;;;0.50;99.90;;;;;;6125543;23;20014;-89
2022/01/11 02:35:36;;;;;;;42.28;23.40;;;0.50;99.90;;;;;;6125476;23;20101;-89
2022/01/11 02:38:02;;;;;;;45.87;24.10;;;0.50;99.90;;;;;;6125331;23;20520;-90
2022/01/11 02:40:28;;;;;;;44.72;24.05;;;0.50;99.90;;;;;;6126176;23;20060;-90
2022/01/11 02:42:54;;;;;;;49.15;25.58;;;0.50;99.90;;;;;;6102811;23;20018;-91
2022/01/11 02:45:21;;;;;;;67.13;25.52;;;0.50;99.90;;;;;;6125472;23;20022;-91
2022/01/11 02:47:48;;;;;;;50.55;25.05;;;0.50;99.90;;;;;;6125492;23;20086;-90
2022/01/11 02:50:14;;;;;;;;;;;0.60;99.90;;;;;;6125704;23;20456;-91
2022/01/11 02:52:40;;;;;;;47.08;24.55;;;0.50;99.90;;;;;;6100968;23;20227;-90
2022/01/11 02:55:11;;;;;;;50.10;24.15;;;0.50;99.90;;;;;;6125156;23;20105;-90
2022/01/11 02:57:37;;;;;;;60.80;25.00;;;0.50;99.90;;;;;;6125481;23;20017;-89
2022/01/11 03:00:13;;;;;;;56.67;24.93;;;0.50;99.90;;;;;;6125294;23;20022;-89
2022/01/11 03:02:39;;;;;;;43.75;23.77;;;0.60;99.90;;;;;;6125402;23;20736;-88
2022/01/11 03:05:06;;;;;;;47.25;23.75;;;0.60;99.90;;;;;;6124781;23;20021;-89
2022/01/11 03:07:32;;;;;;;54.22;24.77;;;0.60;99.90;;;;;;6125226;23;20048;-89
2022/01/11 03:12:26;;;;;;;51.78;23.08;;;0.60;99.90;;;;;;6125170;23;20141;-90
2022/01/11 03:14:52;;;;;;;70.38;24.73;;;0.60;99.90;;;;;;6125059;23;20447;-90
2022/01/11 03:17:18;;;;;;;50.88;24.88;;;0.60;99.90;;;;;;6125268;23;20024;-90
2022/01/11 03:19:45;;;;;;;47.50;25.05;;;0.60;99.90;;;;;;6125024;23;20025;-90
2022/01/11 03:22:11;;;;;;;49.65;23.58;;;0.60;99.90;;;;;;6125018;23;20088;-90
2022/01/11 03:24:38;;;;;;;50.65;23.65;;;0.60;99.90;;;;;;6124892;23;20053;-90
2022/01/11 03:27:06;;;;;;;52.00;24.65;;;0.60;99.90;;;;;;6125056;23;20042;-89
2022/01/11 03:29:34;;;;;;;55.88;24.17;;;0.60;99.90;;;;;;6124833;23;20025;-91
2022/01/11 03:31:59;;;;;;;;;;;0.60;99.90;;;;;;6125530;23;20025;-90
2022/01/11 03:34:25;;;;;;;52.30;25.13;;;0.60;99.90;;;;;;6100495;23;20258;-89
2022/01/11 03:36:51;;;;;;;63.75;25.40;;;0.50;99.90;;;;;;6125260;23;20527;-90
2022/01/11 03:39:17;;;;;;;56.33;24.65;;;0.60;99.90;;;;;;6124951;23;20446;-91
2022/01/11 03:41:42;;;;;;;58.67;26.02;;;0.50;99.90;;;;;;6124996;23;20096;-90
2022/01/11 03:44:08;;;;;;;54.20;25.95;;;0.60;99.90;;;;;;6124869;23;20026;-89
2022/01/11 03:46:34;;;;;;;66.05;27.35;;;0.50;99.90;;;;;;6124789;23;20018;-91
2022/01/11 03:49:00;;;;;;;58.23;26.13;;;0.60;99.90;;;;;;6124796;23;20530;-89
2022/01/11 03:51:26;;;;;;;55.92;27.08;;;0.60;99.90;;;;;;6124725;23;20029;-90
2022/01/11 03:54:00;;;;;;;65.50;27.48;;;0.50;99.90;;;;;;6124908;23;20458;-89
2022/01/11 03:56:26;;;;;;;60.15;26.75;;;0.60;99.90;;;;;;6124635;23;20467;-90
2022/01/11 03:58:52;;;;;;;57.65;28.23;;;0.50;99.90;;;;;;6125070;23;20032;-91
2022/01/11 04:01:19;;;;;;;65.90;28.15;;;0.50;99.90;;;;;;6124908;23;20014;-90
2022/01/11 04:03:46;;;;;;;62.47;28.70;;;0.50;99.90;;;;;;6124785;23;20018;-90
2022/01/11 04:06:16;;;;;;;81.15;28.42;;;0.50;99.90;;;;;;6124588;23;20022;-89
2022/01/11 04:08:43;;;;;;;53.20;28.00;;;0.50;99.90;;;;;;6124653;23;20109;-90
2022/01/11 04:11:10;;;;;;;62.97;29.00;;;0.50;99.90;;;;;;6124719;23;20014;-90
2022/01/11 04:13:35;;;;;;;52.07;28.20;;;0.50;99.90;;;;;;6124579;23;20025;-91
2022/01/11 04:16:01;;;;;;;63.05;28.35;;;0.50;99.90;;;;;;6124744;23;20249;-89
2022/01/11 04:18:27;;;;;;;56.35;29.15;;;0.50;99.90;;;;;;6124579;23;20014;-90
2022/01/11 04:20:53;;;;;;;58.58;29.48;;;0.60;99.90;;;;;;6124786;23;20037;-90
2022/01/11 04:23:18;;;;;;;59.58;28.50;;;0.60;99.90;;;;;;6124644;23;20018;-90
2022/01/11 04:25:44;;;;;;;62.47;29.42;;;0.50;99.90;;;;;;6124690;23;20022;-89
2022/01/11 04:28:10;;;;;;;60.90;29.42;;;0.50;99.90;;;;;;6124884;23;20028;-89
2022/01/11 04:30:37;;;;;;;54.63;27.70;;;0.50;99.90;;;;;;6124388;23;20448;-89
2022/01/11 04:33:04;;;;;;;57.08;27.83;;;0.50;99.90;;;;;;6124590;23;20020;-89
2022/01/11 04:35:30;;;;;;;;;;;0.50;99.90;;;;;;6125011;23;20014;-90
2022/01/11 04:37:56;;;;;;;65.55;27.88;;;0.50;99.90;;;;;;6124606;23;19939;-89
2022/01/11 04:40:22;;;;;;;56.78;28.25;;;0.50;99.90;;;;;;6124513;23;20018;-90
2022/01/11 04:42:48;;;;;;;53.65;27.63;;;0.60;99.90;;;;;;6124671;23;20018;-89
2022/01/11 04:45:15;;;;;;;54.95;28.67;;;0.50;99.90;;;;;;6124610;23;20013;-89
2022/01/11 04:47:40;;;;;;;;;;;0.50;99.90;;;;;;6125040;23;20029;-89
2022/01/11 04:50:09;;;;;;;49.30;26.58;;;0.60;99.90;;;;;;6126081;23;19916;-91
2022/01/11 04:52:34;;;;;;;56.38;27.05;;;0.50;99.90;;;;;;6124409;23;20333;-88
2022/01/11 04:55:01;;;;;;;53.95;27.58;;;0.60;99.90;;;;;;6124648;23;20073;-90
2022/01/11 04:57:27;;;;;;;53.00;27.75;;;0.60;99.90;;;;;;6124579;23;20045;-89
2022/01/11 04:59:52;;;;;;;58.70;27.85;;;0.60;99.90;;;;;;6124450;23;20022;-89
2022/01/11 05:02:19;;;;;;;57.60;27.97;;;0.60;99.90;;;;;;6125556;23;20392;-88
2022/01/11 05:04:45;;;;;;;55.55;28.70;;;0.60;99.90;;;;;;6126037;23;20347;-89
2022/01/11 05:07:10;;;;;;;49.78;27.42;;;0.60;99.90;;;;;;6126264;23;20026;-89
2022/01/11 05:09:36;;;;;;;50.30;27.10;;;0.60;99.90;;;;;;6126172;23;20021;-90
2022/01/11 05:12:02;;;;;;;51.17;27.17;;;0.60;99.90;;;;;;6126182;23;20029;-89
2022/01/11 05:14:28;;;;;;;48.55;26.40;;;0.60;99.90;;;;;;6126269;23;20022;-90
2022/01/11 05:16:53;;;;;;;48.35;25.95;;;0.60;99.90;;;;;;6126465;23;20024;-90
2022/01/11 05:19:19;;;;;;;46.58;26.02;;;0.60;99.90;;;;;;6126237;23;20018;-90
2022/01/11 05:21:45;;;;;;;45.55;25.83;;;0.60;99.90;;;;;;6126245;23;20057;-91
2022/01/11 05:24:11;;;;;;;48.78;26.00;;;0.60;99.90;;;;;;6126185;23;20022;-88
2022/01/11 05:26:38;;;;;;;49.13;25.77;;;0.60;99.90;;;;;;6126495;23;20506;-89
2022/01/11 05:29:04;;;;;;;47.63;26.48;;;0.60;99.90;;;;;;6126420;23;20026;-90
2022/01/11 05:31:32;;;;;;;47.80;26.20;;;0.50;99.90;;;;;;6126546;23;20010;-92
2022/01/11 05:33:58;;;;;;;45.25;25.52;;;0.60;99.90;;;;;;6126307;23;20017;-92
2022/01/11 05:36:23;;;;;;;46.05;24.67;;;0.50;99.90;;;;;;6126541;23;20458;-90
2022/01/11 05:38:49;;;;;;;50.13;25.10;;;0.60;99.90;;;;;;6126347;23;20022;-91
2022/01/11 05:41:15;;;;;;;51.40;25.80;;;0.60;99.90;;;;;;6126067;23;20097;-91
2022/01/11 05:43:41;;;;;;;46.83;26.45;;;0.60;99.90;;;;;;6126199;23;20025;-90
2022/01/11 05:46:31;;;;;;;46.15;24.92;;;0.60;99.90;;;;;;6125901;23;20014;-88
2022/01/11 05:48:57;;;;;;;47.00;24.15;;;0.60;99.90;;;;;;6126101;23;20391;-90
2022/01/11 05:51:26;;;;;;;48.45;24.52;;;0.60;99.90;;;;;;6127021;23;20014;-93
2022/01/11 05:53:52;;;;;;;48.78;25.23;;;0.60;99.90;;;;;;6125724;23;20475;-93
2022/01/11 05:56:17;;;;;;;47.70;24.30;;;0.60;99.90;;;;;;6127455;23;20029;-92
2022/01/11 05:58:43;;;;;;;46.40;25.07;;;0.60;99.90;;;;;;6128423;23;20044;-95
2022/01/11 06:01:09;;;;;;;50.10;24.57;;;0.60;99.90;;;;;;6128120;23;20344;-90
2022/01/11 06:04:00;;;;;;;44.03;23.53;;;0.60;99.90;;;;;;6127265;23;20022;-92
2022/01/11 06:06:27;;;;;;;45.85;23.75;;;0.60;99.90;;;;;;6114116;23;20014;-93
2022/01/11 06:08:53;;;;;;;44.63;24.13;;;0.60;99.90;;;;;;6126685;23;20032;-92
2022/01/11 06:11:19;;;;;;;48.92;24.70;;;0.60;99.90;;;;;;6126560;23;20053;-91
2022/01/11 06:13:45;;;;;;;45.28;24.20;;;0.60;99.90;;;;;;6126177;23;20022;-92
2022/01/11 06:16:11;;;;;;;49.67;25.05;;;0.60;99.90;;;;;;6126472;23;20017;-91
2022/01/11 06:18:37;;;;;;;47.47;24.17;;;0.60;99.90;;;;;;6126557;23;20069;-88
2022/01/11 06:21:03;;;;;;;42.67;24.38;;;0.60;99.90;;;;;;6126205;23;20014;-90
2022/01/11 06:23:34;;;;;;;46.05;25.38;;;0.60;99.90;;;;;;6127904;23;20021;-84
2022/01/11 06:25:59;;;;;;;42.92;23.75;;;0.60;99.90;;;;;;6125512;23;20014;-89
2022/01/11 06:28:25;;;;;;;50.72;24.38;;;0.60;99.90;;;;;;6150431;23;20025;-88
2022/01/11 06:30:51;;;;;;;44.95;23.27;;;0.60;99.90;;;;;;6125904;23;20347;-89
2022/01/11 06:33:17;;;;;;;48.42;25.63;;;0.60;99.90;;;;;;6126264;23;20348;-90
2022/01/11 06:35:48;;;;;;;47.50;24.67;;;0.50;99.90;;;;;;6124419;23;20029;-90
2022/01/11 06:39:10;;;;;;;46.40;24.50;;;0.50;99.90;;;;;;6124930;23;20018;-88
2022/01/11 06:41:51;;;;;;;45.25;24.75;;;0.50;99.90;;;;;;6101819;23;20073;-86
2022/01/11 06:44:17;;;;;;;48.53;24.65;;;0.50;99.90;;;;;;6125515;23;20018;-86
2022/01/11 06:46:43;;;;;;;48.05;25.38;;;0.50;99.90;;;;;;6125678;23;20028;-87
2022/01/11 06:49:08;;;;;;;48.80;26.00;;;0.50;99.90;;;;;;6128631;23;20018;-85
2022/01/11 06:51:35;;;;;;;50.33;26.50;;;0.60;99.90;;;;;;6128941;23;20155;-86
2022/01/11 06:54:16;;;;;;;47.53;26.15;;;0.50;99.90;;;;;;6125907;23;20018;-89
2022/01/11 06:56:42;;;;;;;53.90;26.55;;;0.50;99.90;;;;;;6124810;23;20027;-83
2022/01/11 06:59:07;;;;;;;55.72;26.85;;;0.60;99.90;;;;;;6126168;23;20018;-83
2022/01/11 07:01:34;;;;;;;58.47;27.65;;;0.50;99.90;;;;;;6125295;23;20471;-84
2022/01/11 07:04:00;;;;;;;50.45;26.65;;;0.50;99.90;;;;;;6125500;23;20018;-87
2022/01/11 07:06:26;;;;;;;53.38;28.08;;;0.50;99.90;;;;;;6125949;23;20494;-84
2022/01/11 07:08:51;;;;;;;59.45;28.42;;;0.50;99.90;;;;;;6126237;23;20048;-86
2022/01/11 07:11:18;;;;;;;55.58;28.50;;;0.50;99.90;;;;;;6126210;23;20050;-84
2022/01/11 07:13:44;;;;;;;57.72;29.48;;;0.60;99.90;;;;;;6126648;23;20021;-85
2022/01/11 07:16:10;;;;;;;53.00;27.02;;;0.60;99.90;;;;;;6126558;23;20025;-85
2022/01/11 07:18:35;;;;;;;57.50;27.90;;;0.60;99.90;;;;;;6126510;23;20018;-87
2022/01/11 07:21:01;;;;;;;56.83;29.77;;;0.60;99.90;;;;;;6124938;23;20058;-84
2022/01/11 07:23:27;;;;;;;61.07;28.93;;;0.50;99.90;;;;;;6124731;23;20024;-83
2022/01/11 07:33:39;;;;;;;60.00;29.00;;;0.60;99.90;;;;;;6100820;23;20023;-89
2022/01/11 07:36:05;;;;;;;55.90;28.10;;;0.60;99.90;;;;;;6097849;23;20523;-90
2022/01/11 07:38:33;;;;;;;67.93;29.38;;;0.60;99.90;;;;;;6099146;23;20062;-94
2022/01/11 07:41:08;;;;;;;55.90;28.38;;;0.60;99.90;;;;;;6100822;23;20410;-93
2022/01/11 07:43:36;;;;;;;58.20;29.08;;;0.60;99.90;;;;;;6101925;23;20014;-94
2022/01/11 07:49:59;;;;;;;56.75;26.95;;;0.60;99.90;;;;;;6098221;23;20133;-94
2022/01/11 07:52:25;;;;;;;61.55;29.55;;;0.60;99.90;;;;;;6096949;23;20018;-89
2022/01/11 07:54:52;;;;;;;63.88;30.17;;;0.70;99.90;;;;;;6096597;23;20023;-92
2022/01/11 07:57:18;;;;;;;;;;;0.70;99.90;;;;;;6096860;23;20022;-92
2022/01/11 07:59:44;;;;;;;63.35;28.70;;;0.70;99.90;;;;;;6120972;23;19991;-92
2022/01/11 08:02:10;;;;;;;61.25;28.88;;;0.70;99.90;;;;;;6096358;23;20078;-92
2022/01/11 08:04:53;;;;;;;65.68;30.35;;;0.70;99.90;;;;;;6096975;23;20019;-91
2022/01/11 08:07:19;;;;;;;63.90;28.92;;;0.70;99.90;;;;;;6096510;23;20109;-92
2022/01/11 08:09:44;;;;;;;63.50;29.30;;;0.70;99.90;;;;;;6096150;23;20026;-92
2022/01/11 08:12:38;;;;;;;65.05;29.45;;;0.70;99.90;;;;;;6097510;23;20015;-95
2022/01/11 08:15:07;;;;;;;64.30;28.23;;;0.80;99.90;;;;;;6097837;23;20026;-96
2022/01/11 08:17:33;;;;;;;62.83;29.40;;;0.80;99.90;;;;;;6103174;23;20023;-95
2022/01/11 08:20:12;;;;;;;61.97;28.55;;;0.80;99.90;;;;;;6106489;23;20007;-92
2022/01/11 08:23:04;;;;;;;65.45;28.58;;;0.80;99.90;;;;;;6111336;23;20064;-93
2022/01/11 08:25:31;;;;;;;64.70;30.10;;;0.80;99.90;;;;;;6105688;23;20015;-92
2022/01/11 08:28:43;;;;;;;67.32;29.23;;;0.80;99.90;;;;;;6122983;23;20089;-91
2022/01/11 08:32:08;;;;;;;63.45;28.52;;;0.80;99.90;;;;;;6129886;23;20057;-93
2022/01/11 08:34:36;;;;;;;65.05;30.17;;;0.80;99.90;;;;;;6089914;23;20021;-87
2022/01/11 08:37:30;;;;;;;62.85;28.20;;;0.90;99.90;;;;;;6123546;23;20030;-89
2022/01/11 08:40:07;;;;;;;60.08;27.73;;;0.90;99.90;;;;;;6123036;23;20415;-87
2022/01/11 08:48:04;;;;;;;61.20;28.05;;;0.90;99.90;;;;;;6164801;23;20021;-86
2022/01/11 08:55:40;;;;;;;63.53;28.40;;;0.90;99.90;;;;;;6174765;23;20021;-87
2022/01/11 09:00:42;;;;;;;60.33;28.25;;;0.80;99.90;;;;;;6195352;23;20025;-87
2022/01/11 09:03:08;;;;;;;63.75;27.83;;;0.90;99.90;;;;;;6179040;23;20009;-86
2022/01/11 09:05:34;;;;;;;58.75;27.90;;;0.90;99.90;;;;;;6182338;23;20009;-90
2022/01/11 09:07:59;;;;;;;57.92;28.23;;;0.80;99.90;;;;;;6178495;23;20028;-88
2022/01/11 09:10:27;;;;;;;65.00;29.25;;;0.90;99.90;;;;;;6181586;23;20017;-87
2022/01/11 09:12:57;;;;;;;59.05;27.98;;;0.80;99.90;;;;;;6179952;23;20103;-90
2022/01/11 09:18:00;;;;;;;62.78;27.40;;;0.80;99.90;;;;;;6159066;23;20014;-90
2022/01/11 09:20:25;;;;;;;58.00;28.02;;;0.90;99.90;;;;;;6126540;23;20097;-91
2022/01/11 09:22:54;;;;;;;57.10;27.58;;;0.90;99.90;;;;;;6151733;23;20025;-93
2022/01/11 09:27:56;;;;;;;57.83;26.65;;;0.90;99.90;;;;;;6191969;23;20079;-90
2022/01/11 09:35:52;;;;;;;54.78;24.52;;;0.90;99.90;;;;;;6172451;23;20449;-87
2022/01/11 09:40:57;;;;;;;48.90;23.75;;;0.90;99.90;;;;;;6175131;23;20044;-87
2022/01/11 09:43:30;;;;;;;53.55;24.90;;;0.90;99.90;;;;;;6124734;23;20028;-88
2022/01/11 09:46:22;;;;;;;50.42;24.25;;;0.90;99.90;;;;;;6127278;23;20022;-87
2022/01/11 09:48:48;;;;;;;48.88;24.25;;;0.90;99.90;;;;;;6114546;23;20475;-87
2022/01/11 09:51:14;;;;;;;48.90;24.08;;;0.90;99.90;;;;;;6114785;23;20022;-88
2022/01/11 09:56:17;;;;;;;47.08;23.73;;;0.90;99.90;;;;;;6173065;23;20153;-89
2022/01/11 09:58:45;;;;;;;41.95;22.48;;;0.90;99.90;;;;;;6135748;23;20121;-92
2022/01/11 10:01:11;;;;;;;42.33;22.20;;;0.90;99.90;;;;;;6134078;23;20032;-93
2022/01/11 10:04:04;;;;;;;42.40;22.13;;;0.90;99.90;;;;;;6136434;23;20052;-93
2022/01/11 10:06:37;;;;;;;42.63;21.08;;;1.00;99.90;;;;;;6138472;23;20096;-91
2022/01/11 10:09:54;;;;;;;;;;;;;;;;;;;;;
2022/01/11 10:13:03;;;;;;;;;;;;;;;;;;;;;
2022/01/11 10:15:39;;;;;;;44.75;20.80;;;1.00;99.90;;;;;;6134617;23;20080;-96
2022/01/11 10:18:06;;;;;;;40.28;20.70;;;1.00;99.90;;;;;;6136704;23;20013;-95
2022/01/11 10:20:35;;;;;;;38.17;20.67;;;1.00;99.90;;;;;;6136577;23;20018;-92
2022/01/11 10:23:05;;;;;;;39.85;19.95;;;1.00;99.90;;;;;;6133708;23;20021;-92
2022/01/11 10:25:51;;;;;;;33.85;18.70;;;1.00;99.90;;;;;;6115209;23;20092;-92
2022/01/11 10:28:17;;;;;;;35.00;17.90;;;1.00;99.90;;;;;;6132269;23;20022;-92
2022/01/11 10:30:45;;;;;;;38.03;19.08;;;1.00;99.90;;;;;;6131500;23;20017;-92
2022/01/11 10:33:20;;;;;;;35.47;19.65;;;1.00;99.90;;;;;;6108393;23;20017;-92
2022/01/11 10:36:27;;;;;;;;;;;;;;;;;;;;;
2022/01/11 10:43:55;;;;;;;32.92;19.10;;;1.00;99.90;;;;;;6126582;23;20032;-93
2022/01/11 10:46:21;;;;;;;33.15;17.77;;;1.00;99.90;;;;;;6084034;23;20407;-94
2022/01/11 10:48:47;;;;;;;35.95;18.15;;;1.10;99.90;;;;;;6078547;23;20025;-94
2022/01/11 10:54:10;;;;;;;30.65;17.92;;;1.10;99.90;;;;;;6111232;23;20053;-92
2022/01/11 10:59:11;;;;;;;33.42;18.15;;;1.10;99.90;;;;;;6170926;23;20041;-88
2022/01/11 11:04:29;;;;;;;;;;;1.10;99.90;;;;;;6135085;23;20025;-90
2022/01/11 11:07:13;;;;;;;33.30;18.73;;;1.10;99.90;;;;;;6106824;23;19920;-90
2022/01/11 11:09:46;;;;;;;32.75;18.48;;;1.10;99.90;;;;;;6130646;23;20059;-90
2022/01/11 11:12:21;;;;;;;34.67;18.98;;;1.20;99.90;;;;;;6131026;23;20448;-91
2022/01/11 11:14:52;;;;;;;61.65;48.38;;;1.20;99.90;;;;;;6130901;23;20025;-92
2022/01/11 11:17:33;;;;;;;34.70;19.15;;;1.20;99.90;;;;;;6130759;23;20048;-91
2022/01/11 11:20:02;;;;;;;33.92;18.65;;;1.30;99.90;;;;;;6130811;23;20111;-91
2022/01/11 11:22:28;;;;;;;35.25;20.85;;;1.40;99.90;;;;;;6106080;23;20451;-90
2022/01/11 11:24:55;;;;;;;38.50;21.85;;;1.40;99.90;;;;;;6130538;23;20017;-90
2022/01/11 11:27:23;;;;;;;46.70;32.30;;;1.50;99.90;;;;;;6129942;23;20017;-90
2022/01/11 11:29:52;;;;;;;37.53;20.48;;;1.60;99.90;;;;;;6128646;23;20538;-91
2022/01/11 11:32:19;;;;;;;50.72;33.03;;;1.80;99.90;;;;;;6130833;23;20021;-91
2022/01/11 11:34:49;;;;;;;95.82;74.25;;;1.90;99.90;;;;;;6131100;23;20096;-92
2022/01/11 11:37:37;;;;;;;85.85;61.47;;;2.00;99.90;;;;;;6130854;23;20017;-93
2022/01/11 11:40:12;;;;;;;54.72;38.75;;;2.10;99.90;;;;;;6130859;23;20040;-92
2022/01/11 11:42:39;;;;;;;37.05;21.48;;;2.20;99.90;;;;;;6130639;23;20458;-93
2022/01/11 11:45:38;;;;;;;46.88;31.85;;;2.30;99.90;;;;;;6130385;23;20030;-93
2022/01/11 11:48:15;;;;;;;42.33;28.83;;;2.30;99.90;;;;;;6068047;23;20017;-95
2022/01/11 11:51:04;;;;;;;41.00;29.77;;;2.40;99.90;;;;;;6130594;23;20096;-90
2022/01/11 11:53:38;;;;;;;38.10;23.80;;;2.40;99.90;;;;;;6130388;23;20444;-90
2022/01/11 11:56:18;;;;;;;34.17;21.25;;;2.40;99.90;;;;;;6130237;23;20013;-94
2022/01/11 11:58:46;;;;;;;35.28;24.23;;;2.40;99.90;;;;;;6130306;23;20040;-93
2022/01/11 12:01:47;;;;;;;34.63;22.27;;;2.50;99.90;;;;;;6130230;23;20024;-92
2022/01/11 12:04:27;;;;;;;31.02;17.45;;;2.40;99.90;;;;;;6130114;23;20463;-91
2022/01/11 12:06:55;;;;;;;32.15;18.13;;;2.50;99.90;;;;;;6130425;23;20057;-91
2022/01/11 12:09:22;;;;;;;28.65;17.73;;;2.50;99.90;;;;;;6129865;23;20495;-89
2022/01/11 12:11:50;;;;;;;31.88;18.25;;;2.50;99.90;;;;;;6129629;23;20020;-91
2022/01/11 12:14:36;;;;;;;34.53;19.20;;;2.50;99.90;;;;;;6129973;23;20026;-90
2022/01/11 12:17:16;;;;;;;33.45;19.90;;;2.50;99.90;;;;;;6130100;23;20072;-90
2022/01/11 12:19:48;;;;;;;30.75;17.15;;;2.50;99.90;;;;;;6129958;23;20033;-91
2022/01/11 12:22:17;;;;;;;31.08;19.08;;;2.50;99.90;;;;;;6130413;23;20452;-90
2022/01/11 12:24:47;;;;;;;32.70;18.10;;;2.50;99.90;;;;;;6130476;23;20021;-92
2022/01/11 12:27:16;;;;;;;31.35;18.15;;;2.50;99.90;;;;;;6129934;23;20010;-89
2022/01/11 12:30:17;;;;;;;30.17;17.58;;;2.40;99.90;;;;;;6129838;23;20017;-90
2022/01/11 12:33:06;;;;;;;31.13;17.73;;;2.40;99.90;;;;;;6013833;23;20064;-92
2022/01/11 12:35:31;;;;;;;30.45;18.17;;;2.40;99.90;;;;;;6125349;23;20029;-91
2022/01/11 12:38:08;;;;;;;35.15;18.00;;;2.40;99.90;;;;;;6130106;23;20014;-91
2022/01/11 12:40:44;;;;;;;29.58;17.00;;;2.40;99.90;;;;;;6130175;23;20073;-91
2022/01/11 12:43:20;;;;;;;32.53;17.73;;;2.40;99.90;;;;;;6130132;23;20018;-91
2022/01/11 12:45:54;;;;;;;34.63;18.20;;;2.40;99.90;;;;;;6130260;23;20021;-91
2022/01/11 12:48:42;;;;;;;32.38;17.85;;;2.40;99.90;;;;;;6129784;23;20052;-91
2022/01/11 12:51:22;;;;;;;31.92;17.48;;;2.40;99.90;;;;;;6129579;23;20407;-90
2022/01/11 12:53:49;;;;;;;36.58;19.02;;;2.40;99.90;;;;;;6129379;23;20049;-90
2022/01/11 12:56:17;;;;;;;31.75;17.80;;;2.40;99.90;;;;;;6129922;23;20061;-91
2022/01/11 12:58:45;;;;;;;31.10;18.45;;;2.40;99.90;;;;;;6130288;23;20017;-92
2022/01/11 13:01:26;;;;;;;34.63;18.90;;;2.40;99.90;;;;;;6129903;23;20452;-92
2022/01/11 13:03:57;;;;;;;33.90;18.05;;;2.40;99.90;;;;;;6129843;23;20022;-90
2022/01/11 13:06:34;;;;;;;30.95;17.42;;;2.40;99.90;;;;;;6129883;23;20013;-90
2022/01/11 13:09:05;;;;;;;;;;;2.40;99.90;;;;;;6130232;23;20020;-90
2022/01/11 13:11:31;;;;;;;30.67;18.00;;;2.40;99.90;;;;;;6105249;23;20385;-90
2022/01/11 13:17:10;;;;;;;34.35;18.00;;;2.50;99.90;;;;;;6013704;23;20034;-92
2022/01/11 13:19:41;;;;;;;33.15;18.25;;;2.50;99.90;;;;;;6087725;23;20057;-89
2022/01/11 13:22:11;;;;;;;36.17;19.00;;;2.50;99.90;;;;;;6130146;23;20018;-93
2022/01/11 13:24:52;;;;;;;31.27;18.05;;;2.60;99.90;;;;;;6131404;23;20151;-94
2022/01/11 13:27:18;;;;;;;28.55;17.00;;;2.60;99.90;;;;;;6132209;23;20017;-91
2022/01/11 13:29:44;;;;;;;33.00;17.92;;;2.60;99.90;;;;;;6131746;23;20455;-91
2022/01/11 13:32:10;;;;;;;31.80;17.88;;;2.50;99.90;;;;;;6131570;23;20024;-91
2022/01/11 13:34:38;;;;;;;32.20;18.08;;;2.60;99.90;;;;;;6131687;23;20459;-92
2022/01/11 13:56:14;;;;;;;28.58;17.52;;;2.80;99.90;;;;;;6098780;23;20026;-94
2022/01/11 13:58:48;;;;;;;29.75;17.67;;;2.80;99.90;;;;;;6097729;23;20026;-92
2022/01/11 14:01:19;;;;;;;28.23;16.02;;;2.80;99.90;;;;;;6073472;23;20018;-91
2022/01/11 14:03:46;;;;;;;29.70;16.15;;;2.90;99.90;;;;;;6071358;23;20082;-91
2022/01/11 14:06:17;;;;;;;28.92;16.23;;;2.90;99.90;;;;;;6073337;23;20022;-91
2022/01/11 14:08:54;;;;;;;24.60;16.10;;;2.90;99.90;;;;;;6073376;23;20014;-92
2022/01/11 14:11:36;;;;;;;32.03;15.25;;;2.90;99.90;;;;;;6073410;23;20075;-90
2022/01/11 14:14:04;;;;;;;25.33;15.38;;;3.00;99.90;;;;;;6073306;23;20029;-89
2022/01/11 14:16:43;;;;;;;24.05;13.43;;;3.00;99.90;;;;;;6073414;23;20019;-92
2022/01/11 14:19:49;;;;;;;25.98;14.32;;;3.00;99.90;;;;;;6073173;23;20441;-91
2022/01/11 14:22:45;;;;;;;26.70;15.02;;;3.10;99.90;;;;;;6073232;23;20020;-92
2022/01/11 14:25:33;;;;;;;21.92;13.60;;;3.10;99.90;;;;;;6073445;23;20452;-93
2022/01/11 14:28:03;;;;;;;24.15;13.18;;;3.10;99.90;;;;;;6049076;23;20101;-92
2022/01/11 14:30:56;;;;;;;;;;;;;;;;;;;;;
2022/01/11 14:41:22;;;;;;;23.20;13.25;;;3.20;99.90;;;;;;6127492;23;20022;-91
2022/01/11 14:48:49;;;;;;;24.83;13.23;;;3.30;99.90;;;;;;6130660;23;20029;-92